sensor_id;sensor_type;location;lat;lon;timestamp;P1;durP1;ratioP1;P2;durP2;ratioP2
944;SDS011;459;48.676;9.034;2022-07-17T00:01:09;4.90;;;4.50;;
944;SDS011;459;48.676;9.034;2022-07-17T00:03:34;4.77;;;4.27;;
944;SDS011;459;48.676;9.034;2022-07-17T00:06:00;3.93;;;3.63;;
944;SDS011;459;48.676;9.034;2022-07-17T00:08:25;4.27;;;3.87;;
944;SDS011;459;48.676;9.034;2022-07-17T00:10:50;3.53;;;3.23;;
944;SDS011;459;48.676;9.034;2022-07-17T00:13:16;4.23;;;3.83;;
944;SDS011;459;48.676;9.034;2022-07-17T00:15:41;5.70;;;4.03;;
944;SDS011;459;48.676;9.034;2022-07-17T00:18:06;5.07;;;3.57;;
944;SDS011;459;48.676;9.034;2022-07-17T00:20:32;4.03;;;3.67;;
944;SDS011;459;48.676;9.034;2022-07-17T00:22:58;4.43;;;4.03;;
944;SDS011;459;48.676;9.034;2022-07-17T00:25:23;4.37;;;3.97;;
944;SDS011;459;48.676;9.034;2022-07-17T00:27:48;5.53;;;3.70;;
944;SDS011;459;48.676;9.034;2022-07-17T00:30:14;4.77;;;4.30;;
944;SDS011;459;48.676;9.034;2022-07-17T00:32:39;4.30;;;4.00;;
944;SDS011;459;48.676;9.034;2022-07-17T00:35:04;5.47;;;4.00;;
944;SDS011;459;48.676;9.034;2022-07-17T00:37:30;4.10;;;3.80;;
944;SDS011;459;48.676;9.034;2022-07-17T00:39:55;4.33;;;3.97;;
944;SDS011;459;48.676;9.034;2022-07-17T00:42:20;4.57;;;3.40;;
944;SDS011;459;48.676;9.034;2022-07-17T00:44:46;4.10;;;3.80;;
944;SDS011;459;48.676;9.034;2022-07-17T00:47:15;4.70;;;4.33;;
944;SDS011;459;48.676;9.034;2022-07-17T00:49:40;4.43;;;4.03;;
944;SDS011;459;48.676;9.034;2022-07-17T00:52:06;4.77;;;4.37;;
944;SDS011;459;48.676;9.034;2022-07-17T00:54:34;4.80;;;4.40;;
944;SDS011;459;48.676;9.034;2022-07-17T00:56:59;5.23;;;4.67;;
944;SDS011;459;48.676;9.034;2022-07-17T00:59:27;4.40;;;4.10;;
944;SDS011;459;48.676;9.034;2022-07-17T01:01:52;4.80;;;4.40;;
944;SDS011;459;48.676;9.034;2022-07-17T01:04:18;4.70;;;4.30;;
944;SDS011;459;48.676;9.034;2022-07-17T01:06:43;5.20;;;4.70;;
944;SDS011;459;48.676;9.034;2022-07-17T01:09:11;5.40;;;5.03;;
944;SDS011;459;48.676;9.034;2022-07-17T01:11:36;4.80;;;4.40;;
944;SDS011;459;48.676;9.034;2022-07-17T01:14:02;4.93;;;4.53;;
944;SDS011;459;48.676;9.034;2022-07-17T01:16:27;5.20;;;4.17;;
944;SDS011;459;48.676;9.034;2022-07-17T01:18:52;5.60;;;5.10;;
944;SDS011;459;48.676;9.034;2022-07-17T01:21:18;5.07;;;4.47;;
944;SDS011;459;48.676;9.034;2022-07-17T01:23:43;5.20;;;4.70;;
944;SDS011;459;48.676;9.034;2022-07-17T01:26:09;4.70;;;4.40;;
944;SDS011;459;48.676;9.034;2022-07-17T01:28:34;4.57;;;4.17;;
944;SDS011;459;48.676;9.034;2022-07-17T01:31:00;4.60;;;4.20;;
944;SDS011;459;48.676;9.034;2022-07-17T01:33:25;7.47;;;5.40;;
944;SDS011;459;48.676;9.034;2022-07-17T01:35:51;5.27;;;4.87;;
944;SDS011;459;48.676;9.034;2022-07-17T01:38:18;5.20;;;4.70;;
944;SDS011;459;48.676;9.034;2022-07-17T01:40:53;5.90;;;4.97;;
944;SDS011;459;48.676;9.034;2022-07-17T01:43:20;4.83;;;4.33;;
944;SDS011;459;48.676;9.034;2022-07-17T01:45:46;5.90;;;5.33;;
944;SDS011;459;48.676;9.034;2022-07-17T01:48:22;5.70;;;5.30;;
944;SDS011;459;48.676;9.034;2022-07-17T01:50:52;5.63;;;4.87;;
944;SDS011;459;48.676;9.034;2022-07-17T01:53:19;5.37;;;4.97;;
944;SDS011;459;48.676;9.034;2022-07-17T01:55:47;6.27;;;5.67;;
944;SDS011;459;48.676;9.034;2022-07-17T01:58:13;7.03;;;5.13;;
944;SDS011;459;48.676;9.034;2022-07-17T02:00:39;5.07;;;4.57;;
944;SDS011;459;48.676;9.034;2022-07-17T02:03:04;5.93;;;5.00;;
944;SDS011;459;48.676;9.034;2022-07-17T02:05:29;8.43;;;5.47;;
944;SDS011;459;48.676;9.034;2022-07-17T02:07:54;7.27;;;5.50;;
944;SDS011;459;48.676;9.034;2022-07-17T02:10:20;6.20;;;5.60;;
944;SDS011;459;48.676;9.034;2022-07-17T02:12:45;8.47;;;5.50;;
944;SDS011;459;48.676;9.034;2022-07-17T02:15:10;6.20;;;5.70;;
944;SDS011;459;48.676;9.034;2022-07-17T02:17:35;6.30;;;5.80;;
944;SDS011;459;48.676;9.034;2022-07-17T02:20:01;6.20;;;5.60;;
944;SDS011;459;48.676;9.034;2022-07-17T02:22:26;7.00;;;5.77;;
944;SDS011;459;48.676;9.034;2022-07-17T02:24:51;6.27;;;5.67;;
944;SDS011;459;48.676;9.034;2022-07-17T02:27:17;5.97;;;5.20;;
944;SDS011;459;48.676;9.034;2022-07-17T02:29:42;6.33;;;5.80;;
944;SDS011;459;48.676;9.034;2022-07-17T02:32:07;6.53;;;5.60;;
944;SDS011;459;48.676;9.034;2022-07-17T02:34:32;6.57;;;6.00;;
944;SDS011;459;48.676;9.034;2022-07-17T02:36:57;6.50;;;6.00;;
944;SDS011;459;48.676;9.034;2022-07-17T02:39:23;5.90;;;5.40;;
944;SDS011;459;48.676;9.034;2022-07-17T02:41:48;6.00;;;5.50;;
944;SDS011;459;48.676;9.034;2022-07-17T02:44:13;6.40;;;5.87;;
944;SDS011;459;48.676;9.034;2022-07-17T02:46:39;6.40;;;5.80;;
944;SDS011;459;48.676;9.034;2022-07-17T02:49:04;6.60;;;6.10;;
944;SDS011;459;48.676;9.034;2022-07-17T02:51:29;8.83;;;6.27;;
944;SDS011;459;48.676;9.034;2022-07-17T02:53:54;6.57;;;5.97;;
944;SDS011;459;48.676;9.034;2022-07-17T02:56:19;6.10;;;5.40;;
944;SDS011;459;48.676;9.034;2022-07-17T02:58:45;6.70;;;5.93;;
944;SDS011;459;48.676;9.034;2022-07-17T03:01:10;6.13;;;5.50;;
944;SDS011;459;48.676;9.034;2022-07-17T03:03:35;7.13;;;6.43;;
944;SDS011;459;48.676;9.034;2022-07-17T03:06:00;6.07;;;5.53;;
944;SDS011;459;48.676;9.034;2022-07-17T03:08:25;6.03;;;5.53;;
944;SDS011;459;48.676;9.034;2022-07-17T03:10:51;6.33;;;5.83;;
944;SDS011;459;48.676;9.034;2022-07-17T03:13:16;6.47;;;5.87;;
944;SDS011;459;48.676;9.034;2022-07-17T03:15:41;5.80;;;5.30;;
944;SDS011;459;48.676;9.034;2022-07-17T03:18:06;6.03;;;5.53;;
944;SDS011;459;48.676;9.034;2022-07-17T03:20:32;6.20;;;5.77;;
944;SDS011;459;48.676;9.034;2022-07-17T03:22:57;7.00;;;6.43;;
944;SDS011;459;48.676;9.034;2022-07-17T03:25:22;6.67;;;6.07;;
944;SDS011;459;48.676;9.034;2022-07-17T03:27:47;7.60;;;6.20;;
944;SDS011;459;48.676;9.034;2022-07-17T03:30:13;6.70;;;6.17;;
944;SDS011;459;48.676;9.034;2022-07-17T03:32:38;6.30;;;5.70;;
944;SDS011;459;48.676;9.034;2022-07-17T03:35:04;8.30;;;6.30;;
944;SDS011;459;48.676;9.034;2022-07-17T03:37:29;10.23;;;6.00;;
944;SDS011;459;48.676;9.034;2022-07-17T03:39:54;6.50;;;5.90;;
944;SDS011;459;48.676;9.034;2022-07-17T03:42:20;6.80;;;6.10;;
944;SDS011;459;48.676;9.034;2022-07-17T03:44:45;6.67;;;5.97;;
944;SDS011;459;48.676;9.034;2022-07-17T03:47:10;6.93;;;6.33;;
944;SDS011;459;48.676;9.034;2022-07-17T03:49:35;6.37;;;5.87;;
944;SDS011;459;48.676;9.034;2022-07-17T03:52:00;6.80;;;5.63;;
944;SDS011;459;48.676;9.034;2022-07-17T03:54:26;6.30;;;5.80;;
944;SDS011;459;48.676;9.034;2022-07-17T03:56:51;7.47;;;6.10;;
944;SDS011;459;48.676;9.034;2022-07-17T03:59:16;6.93;;;6.33;;
944;SDS011;459;48.676;9.034;2022-07-17T04:01:41;7.40;;;6.80;;
944;SDS011;459;48.676;9.034;2022-07-17T04:04:06;6.50;;;6.00;;
944;SDS011;459;48.676;9.034;2022-07-17T04:06:32;7.03;;;6.43;;
944;SDS011;459;48.676;9.034;2022-07-17T04:08:57;7.40;;;6.60;;
944;SDS011;459;48.676;9.034;2022-07-17T04:11:22;6.50;;;6.00;;
944;SDS011;459;48.676;9.034;2022-07-17T04:13:47;6.07;;;5.57;;
944;SDS011;459;48.676;9.034;2022-07-17T04:16:13;7.00;;;6.50;;
944;SDS011;459;48.676;9.034;2022-07-17T04:18:38;6.47;;;5.87;;
944;SDS011;459;48.676;9.034;2022-07-17T04:21:07;7.43;;;6.17;;
944;SDS011;459;48.676;9.034;2022-07-17T04:23:33;7.10;;;6.47;;
944;SDS011;459;48.676;9.034;2022-07-17T04:25:58;6.90;;;6.33;;
944;SDS011;459;48.676;9.034;2022-07-17T04:28:24;6.90;;;6.37;;
944;SDS011;459;48.676;9.034;2022-07-17T04:30:49;7.10;;;6.40;;
944;SDS011;459;48.676;9.034;2022-07-17T04:33:14;6.33;;;5.73;;
944;SDS011;459;48.676;9.034;2022-07-17T04:35:39;7.37;;;6.77;;
944;SDS011;459;48.676;9.034;2022-07-17T04:38:05;7.17;;;6.67;;
944;SDS011;459;48.676;9.034;2022-07-17T04:40:31;6.53;;;5.97;;
944;SDS011;459;48.676;9.034;2022-07-17T04:42:56;6.00;;;5.40;;
944;SDS011;459;48.676;9.034;2022-07-17T04:45:21;6.93;;;6.33;;
944;SDS011;459;48.676;9.034;2022-07-17T04:47:47;6.70;;;6.20;;
944;SDS011;459;48.676;9.034;2022-07-17T04:50:12;7.97;;;6.20;;
944;SDS011;459;48.676;9.034;2022-07-17T04:52:37;6.37;;;5.77;;
944;SDS011;459;48.676;9.034;2022-07-17T04:55:03;7.00;;;6.27;;
944;SDS011;459;48.676;9.034;2022-07-17T04:57:28;7.27;;;6.67;;
944;SDS011;459;48.676;9.034;2022-07-17T04:59:53;7.37;;;6.77;;
944;SDS011;459;48.676;9.034;2022-07-17T05:02:18;6.73;;;6.13;;
944;SDS011;459;48.676;9.034;2022-07-17T05:04:44;6.67;;;6.07;;
944;SDS011;459;48.676;9.034;2022-07-17T05:07:09;6.83;;;6.23;;
944;SDS011;459;48.676;9.034;2022-07-17T05:09:34;7.10;;;6.50;;
944;SDS011;459;48.676;9.034;2022-07-17T05:12:00;7.23;;;6.73;;
944;SDS011;459;48.676;9.034;2022-07-17T05:14:25;7.90;;;7.13;;
944;SDS011;459;48.676;9.034;2022-07-17T05:16:50;7.13;;;6.43;;
944;SDS011;459;48.676;9.034;2022-07-17T05:19:15;9.17;;;7.23;;
944;SDS011;459;48.676;9.034;2022-07-17T05:21:41;7.63;;;6.93;;
944;SDS011;459;48.676;9.034;2022-07-17T05:24:06;7.73;;;7.13;;
944;SDS011;459;48.676;9.034;2022-07-17T05:26:32;7.87;;;7.17;;
944;SDS011;459;48.676;9.034;2022-07-17T05:28:57;7.40;;;6.80;;
944;SDS011;459;48.676;9.034;2022-07-17T05:31:22;8.00;;;6.83;;
944;SDS011;459;48.676;9.034;2022-07-17T05:33:47;8.90;;;7.00;;
944;SDS011;459;48.676;9.034;2022-07-17T05:36:12;8.37;;;7.67;;
944;SDS011;459;48.676;9.034;2022-07-17T05:38:38;7.83;;;7.20;;
944;SDS011;459;48.676;9.034;2022-07-17T05:41:03;6.67;;;6.10;;
944;SDS011;459;48.676;9.034;2022-07-17T05:43:28;7.13;;;6.53;;
944;SDS011;459;48.676;9.034;2022-07-17T05:45:54;7.17;;;6.57;;
944;SDS011;459;48.676;9.034;2022-07-17T05:48:20;7.47;;;6.73;;
944;SDS011;459;48.676;9.034;2022-07-17T05:50:48;6.77;;;6.17;;
944;SDS011;459;48.676;9.034;2022-07-17T05:53:13;7.10;;;6.60;;
944;SDS011;459;48.676;9.034;2022-07-17T05:55:39;6.80;;;6.17;;
944;SDS011;459;48.676;9.034;2022-07-17T05:58:04;7.10;;;6.50;;
944;SDS011;459;48.676;9.034;2022-07-17T06:00:30;7.53;;;6.83;;
944;SDS011;459;48.676;9.034;2022-07-17T06:02:55;7.10;;;6.50;;
944;SDS011;459;48.676;9.034;2022-07-17T06:05:20;6.87;;;6.20;;
944;SDS011;459;48.676;9.034;2022-07-17T06:07:45;6.70;;;6.10;;
944;SDS011;459;48.676;9.034;2022-07-17T06:10:10;6.73;;;6.23;;
944;SDS011;459;48.676;9.034;2022-07-17T06:12:36;7.60;;;6.57;;
944;SDS011;459;48.676;9.034;2022-07-17T06:15:01;7.30;;;5.80;;
944;SDS011;459;48.676;9.034;2022-07-17T06:17:26;7.30;;;6.30;;
944;SDS011;459;48.676;9.034;2022-07-17T06:19:53;7.13;;;5.83;;
944;SDS011;459;48.676;9.034;2022-07-17T06:22:18;6.67;;;6.17;;
944;SDS011;459;48.676;9.034;2022-07-17T06:24:44;6.03;;;5.53;;
944;SDS011;459;48.676;9.034;2022-07-17T06:27:09;7.17;;;6.00;;
944;SDS011;459;48.676;9.034;2022-07-17T06:29:35;5.27;;;4.67;;
944;SDS011;459;48.676;9.034;2022-07-17T06:32:00;5.60;;;5.10;;
944;SDS011;459;48.676;9.034;2022-07-17T06:34:25;5.23;;;4.73;;
944;SDS011;459;48.676;9.034;2022-07-17T06:36:50;5.47;;;4.97;;
944;SDS011;459;48.676;9.034;2022-07-17T06:39:15;4.97;;;4.67;;
944;SDS011;459;48.676;9.034;2022-07-17T06:41:41;5.20;;;4.70;;
944;SDS011;459;48.676;9.034;2022-07-17T06:44:06;6.13;;;4.50;;
944;SDS011;459;48.676;9.034;2022-07-17T06:46:31;5.00;;;4.60;;
944;SDS011;459;48.676;9.034;2022-07-17T06:48:56;5.90;;;5.50;;
944;SDS011;459;48.676;9.034;2022-07-17T06:51:22;4.60;;;4.20;;
944;SDS011;459;48.676;9.034;2022-07-17T06:53:47;5.47;;;4.97;;
944;SDS011;459;48.676;9.034;2022-07-17T06:56:12;3.70;;;3.50;;
944;SDS011;459;48.676;9.034;2022-07-17T06:58:37;4.80;;;4.40;;
944;SDS011;459;48.676;9.034;2022-07-17T07:01:02;4.57;;;4.17;;
944;SDS011;459;48.676;9.034;2022-07-17T07:03:28;5.77;;;4.73;;
944;SDS011;459;48.676;9.034;2022-07-17T07:05:53;4.60;;;4.30;;
944;SDS011;459;48.676;9.034;2022-07-17T07:08:19;4.10;;;3.80;;
944;SDS011;459;48.676;9.034;2022-07-17T07:10:44;5.07;;;4.57;;
944;SDS011;459;48.676;9.034;2022-07-17T07:13:10;4.70;;;4.23;;
944;SDS011;459;48.676;9.034;2022-07-17T07:15:37;4.63;;;4.33;;
944;SDS011;459;48.676;9.034;2022-07-17T07:18:02;4.77;;;4.30;;
944;SDS011;459;48.676;9.034;2022-07-17T07:20:27;5.30;;;4.80;;
944;SDS011;459;48.676;9.034;2022-07-17T07:22:53;4.07;;;3.70;;
944;SDS011;459;48.676;9.034;2022-07-17T07:25:18;3.87;;;3.57;;
944;SDS011;459;48.676;9.034;2022-07-17T07:27:43;3.97;;;3.67;;
944;SDS011;459;48.676;9.034;2022-07-17T07:30:09;4.00;;;3.70;;
944;SDS011;459;48.676;9.034;2022-07-17T07:32:35;3.93;;;3.63;;
944;SDS011;459;48.676;9.034;2022-07-17T07:35:00;3.90;;;3.50;;
944;SDS011;459;48.676;9.034;2022-07-17T07:37:25;3.77;;;3.50;;
944;SDS011;459;48.676;9.034;2022-07-17T07:39:50;3.70;;;3.40;;
944;SDS011;459;48.676;9.034;2022-07-17T07:42:15;3.57;;;3.33;;
944;SDS011;459;48.676;9.034;2022-07-17T07:44:41;3.90;;;3.60;;
944;SDS011;459;48.676;9.034;2022-07-17T07:47:06;4.23;;;3.83;;
944;SDS011;459;48.676;9.034;2022-07-17T07:49:31;4.67;;;3.87;;
944;SDS011;459;48.676;9.034;2022-07-17T07:51:56;4.63;;;3.33;;
944;SDS011;459;48.676;9.034;2022-07-17T07:54:21;3.57;;;3.37;;
944;SDS011;459;48.676;9.034;2022-07-17T07:56:47;4.47;;;4.07;;
944;SDS011;459;48.676;9.034;2022-07-17T07:59:12;3.50;;;3.10;;
944;SDS011;459;48.676;9.034;2022-07-17T08:01:38;3.80;;;3.40;;
944;SDS011;459;48.676;9.034;2022-07-17T08:04:03;4.70;;;3.20;;
944;SDS011;459;48.676;9.034;2022-07-17T08:06:28;3.90;;;3.37;;
944;SDS011;459;48.676;9.034;2022-07-17T08:08:53;3.70;;;3.40;;
944;SDS011;459;48.676;9.034;2022-07-17T08:11:21;3.60;;;3.30;;
944;SDS011;459;48.676;9.034;2022-07-17T08:13:46;3.63;;;3.33;;
944;SDS011;459;48.676;9.034;2022-07-17T08:16:11;3.47;;;3.17;;
944;SDS011;459;48.676;9.034;2022-07-17T08:18:36;3.80;;;3.50;;
944;SDS011;459;48.676;9.034;2022-07-17T08:21:02;3.80;;;3.00;;
944;SDS011;459;48.676;9.034;2022-07-17T08:23:27;3.30;;;3.00;;
944;SDS011;459;48.676;9.034;2022-07-17T08:25:52;3.47;;;3.17;;
944;SDS011;459;48.676;9.034;2022-07-17T08:28:17;3.43;;;3.13;;
944;SDS011;459;48.676;9.034;2022-07-17T08:30:42;4.27;;;3.40;;
944;SDS011;459;48.676;9.034;2022-07-17T08:33:09;5.17;;;3.20;;
944;SDS011;459;48.676;9.034;2022-07-17T08:35:34;3.83;;;3.30;;
944;SDS011;459;48.676;9.034;2022-07-17T08:38:00;3.10;;;2.90;;
944;SDS011;459;48.676;9.034;2022-07-17T08:40:26;4.20;;;3.80;;
944;SDS011;459;48.676;9.034;2022-07-17T08:42:52;3.90;;;3.50;;
944;SDS011;459;48.676;9.034;2022-07-17T08:45:17;3.53;;;3.23;;
944;SDS011;459;48.676;9.034;2022-07-17T08:47:43;3.60;;;3.30;;
944;SDS011;459;48.676;9.034;2022-07-17T08:50:09;3.50;;;3.20;;
944;SDS011;459;48.676;9.034;2022-07-17T08:52:36;3.70;;;3.27;;
944;SDS011;459;48.676;9.034;2022-07-17T08:55:01;3.93;;;3.53;;
944;SDS011;459;48.676;9.034;2022-07-17T08:57:26;3.43;;;3.20;;
944;SDS011;459;48.676;9.034;2022-07-17T08:59:51;3.37;;;3.10;;
944;SDS011;459;48.676;9.034;2022-07-17T09:02:17;4.43;;;4.00;;
944;SDS011;459;48.676;9.034;2022-07-17T09:04:42;4.00;;;3.37;;
944;SDS011;459;48.676;9.034;2022-07-17T09:07:07;4.60;;;4.00;;
944;SDS011;459;48.676;9.034;2022-07-17T09:09:32;3.53;;;3.33;;
944;SDS011;459;48.676;9.034;2022-07-17T09:12:00;3.37;;;3.17;;
944;SDS011;459;48.676;9.034;2022-07-17T09:14:39;4.33;;;3.63;;
944;SDS011;459;48.676;9.034;2022-07-17T09:17:05;3.87;;;3.57;;
944;SDS011;459;48.676;9.034;2022-07-17T09:19:31;2.93;;;2.67;;
944;SDS011;459;48.676;9.034;2022-07-17T09:22:07;4.23;;;3.50;;
944;SDS011;459;48.676;9.034;2022-07-17T09:27:05;4.00;;;3.70;;
944;SDS011;459;48.676;9.034;2022-07-17T09:29:30;3.77;;;3.47;;
944;SDS011;459;48.676;9.034;2022-07-17T09:31:55;3.13;;;2.80;;
944;SDS011;459;48.676;9.034;2022-07-17T09:34:21;3.07;;;2.87;;
944;SDS011;459;48.676;9.034;2022-07-17T09:36:57;3.47;;;3.27;;
944;SDS011;459;48.676;9.034;2022-07-17T09:39:23;3.20;;;3.00;;
944;SDS011;459;48.676;9.034;2022-07-17T09:41:58;3.87;;;3.47;;
944;SDS011;459;48.676;9.034;2022-07-17T09:44:23;3.50;;;3.20;;
944;SDS011;459;48.676;9.034;2022-07-17T09:46:48;3.97;;;3.60;;
944;SDS011;459;48.676;9.034;2022-07-17T09:49:13;3.17;;;2.90;;
944;SDS011;459;48.676;9.034;2022-07-17T09:51:39;3.80;;;3.50;;
944;SDS011;459;48.676;9.034;2022-07-17T09:54:06;4.10;;;3.13;;
944;SDS011;459;48.676;9.034;2022-07-17T09:56:32;3.70;;;3.40;;
944;SDS011;459;48.676;9.034;2022-07-17T09:59:00;4.03;;;3.33;;
944;SDS011;459;48.676;9.034;2022-07-17T10:01:25;3.50;;;3.20;;
944;SDS011;459;48.676;9.034;2022-07-17T10:03:50;3.93;;;3.63;;
944;SDS011;459;48.676;9.034;2022-07-17T10:06:18;3.50;;;3.20;;
944;SDS011;459;48.676;9.034;2022-07-17T10:08:43;3.53;;;3.23;;
944;SDS011;459;48.676;9.034;2022-07-17T10:11:08;3.30;;;3.00;;
944;SDS011;459;48.676;9.034;2022-07-17T10:13:40;4.20;;;3.80;;
944;SDS011;459;48.676;9.034;2022-07-17T10:16:07;4.43;;;3.40;;
944;SDS011;459;48.676;9.034;2022-07-17T10:18:44;4.50;;;3.53;;
944;SDS011;459;48.676;9.034;2022-07-17T10:23:34;3.60;;;2.90;;
944;SDS011;459;48.676;9.034;2022-07-17T10:26:00;3.70;;;3.40;;
944;SDS011;459;48.676;9.034;2022-07-17T10:28:25;2.80;;;2.60;;
944;SDS011;459;48.676;9.034;2022-07-17T10:30:50;3.27;;;2.97;;
944;SDS011;459;48.676;9.034;2022-07-17T10:33:16;2.80;;;2.60;;
944;SDS011;459;48.676;9.034;2022-07-17T10:35:48;2.97;;;2.77;;
944;SDS011;459;48.676;9.034;2022-07-17T10:38:14;3.93;;;2.80;;
944;SDS011;459;48.676;9.034;2022-07-17T10:40:40;2.53;;;2.33;;
944;SDS011;459;48.676;9.034;2022-07-17T10:43:06;4.70;;;2.87;;
944;SDS011;459;48.676;9.034;2022-07-17T10:45:32;3.50;;;2.50;;
944;SDS011;459;48.676;9.034;2022-07-17T10:48:02;3.37;;;3.17;;
944;SDS011;459;48.676;9.034;2022-07-17T10:53:04;2.90;;;2.70;;
944;SDS011;459;48.676;9.034;2022-07-17T10:55:29;2.50;;;2.30;;
944;SDS011;459;48.676;9.034;2022-07-17T10:57:55;2.53;;;2.20;;
944;SDS011;459;48.676;9.034;2022-07-17T11:00:20;2.77;;;2.57;;
944;SDS011;459;48.676;9.034;2022-07-17T11:02:46;2.87;;;2.67;;
944;SDS011;459;48.676;9.034;2022-07-17T11:05:12;2.37;;;2.17;;
944;SDS011;459;48.676;9.034;2022-07-17T11:07:51;4.30;;;2.73;;
944;SDS011;459;48.676;9.034;2022-07-17T11:10:17;3.10;;;2.40;;
944;SDS011;459;48.676;9.034;2022-07-17T11:12:42;2.40;;;2.20;;
944;SDS011;459;48.676;9.034;2022-07-17T11:15:07;2.83;;;2.63;;
944;SDS011;459;48.676;9.034;2022-07-17T11:17:32;4.73;;;2.80;;
944;SDS011;459;48.676;9.034;2022-07-17T11:19:58;2.43;;;2.07;;
944;SDS011;459;48.676;9.034;2022-07-17T11:22:23;2.63;;;2.43;;
944;SDS011;459;48.676;9.034;2022-07-17T11:24:49;2.70;;;2.50;;
944;SDS011;459;48.676;9.034;2022-07-17T11:27:24;2.73;;;2.53;;
944;SDS011;459;48.676;9.034;2022-07-17T11:29:51;2.90;;;2.20;;
944;SDS011;459;48.676;9.034;2022-07-17T11:32:16;3.00;;;2.23;;
944;SDS011;459;48.676;9.034;2022-07-17T11:34:42;2.10;;;2.00;;
944;SDS011;459;48.676;9.034;2022-07-17T11:37:07;2.03;;;1.83;;
944;SDS011;459;48.676;9.034;2022-07-17T11:39:40;2.73;;;2.17;;
944;SDS011;459;48.676;9.034;2022-07-17T11:42:13;2.40;;;2.20;;
944;SDS011;459;48.676;9.034;2022-07-17T11:44:39;2.83;;;2.33;;
944;SDS011;459;48.676;9.034;2022-07-17T11:47:04;4.70;;;4.13;;
944;SDS011;459;48.676;9.034;2022-07-17T11:49:31;2.43;;;2.10;;
944;SDS011;459;48.676;9.034;2022-07-17T11:51:57;2.70;;;2.50;;
944;SDS011;459;48.676;9.034;2022-07-17T11:54:23;2.17;;;2.03;;
944;SDS011;459;48.676;9.034;2022-07-17T11:56:52;2.93;;;2.73;;
944;SDS011;459;48.676;9.034;2022-07-17T11:59:29;2.70;;;2.13;;
944;SDS011;459;48.676;9.034;2022-07-17T12:01:54;2.50;;;2.30;;
944;SDS011;459;48.676;9.034;2022-07-17T12:04:19;2.30;;;2.10;;
944;SDS011;459;48.676;9.034;2022-07-17T12:06:46;1.87;;;1.77;;
944;SDS011;459;48.676;9.034;2022-07-17T12:09:11;2.70;;;2.23;;
944;SDS011;459;48.676;9.034;2022-07-17T12:11:47;2.20;;;2.10;;
944;SDS011;459;48.676;9.034;2022-07-17T12:14:12;2.30;;;2.10;;
944;SDS011;459;48.676;9.034;2022-07-17T12:16:37;2.13;;;1.93;;
944;SDS011;459;48.676;9.034;2022-07-17T12:21:29;1.70;;;1.60;;
944;SDS011;459;48.676;9.034;2022-07-17T12:23:56;2.27;;;1.80;;
944;SDS011;459;48.676;9.034;2022-07-17T12:26:22;2.03;;;1.93;;
944;SDS011;459;48.676;9.034;2022-07-17T12:28:47;2.30;;;2.10;;
944;SDS011;459;48.676;9.034;2022-07-17T12:31:13;2.13;;;1.87;;
944;SDS011;459;48.676;9.034;2022-07-17T12:33:41;5.30;;;2.13;;
944;SDS011;459;48.676;9.034;2022-07-17T12:36:07;2.70;;;2.47;;
944;SDS011;459;48.676;9.034;2022-07-17T12:38:32;2.40;;;2.20;;
944;SDS011;459;48.676;9.034;2022-07-17T12:40:58;2.53;;;2.30;;
944;SDS011;459;48.676;9.034;2022-07-17T12:43:23;2.60;;;2.40;;
944;SDS011;459;48.676;9.034;2022-07-17T12:45:48;2.40;;;2.20;;
944;SDS011;459;48.676;9.034;2022-07-17T12:48:14;2.10;;;1.90;;
944;SDS011;459;48.676;9.034;2022-07-17T12:50:39;2.37;;;1.80;;
944;SDS011;459;48.676;9.034;2022-07-17T12:53:04;2.33;;;2.13;;
944;SDS011;459;48.676;9.034;2022-07-17T12:55:29;2.57;;;2.30;;
944;SDS011;459;48.676;9.034;2022-07-17T12:57:55;3.00;;;2.37;;
944;SDS011;459;48.676;9.034;2022-07-17T13:00:20;2.50;;;2.03;;
944;SDS011;459;48.676;9.034;2022-07-17T13:02:45;2.20;;;2.03;;
944;SDS011;459;48.676;9.034;2022-07-17T13:05:10;3.73;;;2.17;;
944;SDS011;459;48.676;9.034;2022-07-17T13:07:36;2.30;;;2.10;;
944;SDS011;459;48.676;9.034;2022-07-17T13:10:02;2.30;;;2.10;;
944;SDS011;459;48.676;9.034;2022-07-17T13:12:27;2.27;;;2.10;;
944;SDS011;459;48.676;9.034;2022-07-17T13:14:52;2.03;;;1.80;;
944;SDS011;459;48.676;9.034;2022-07-17T13:17:17;2.80;;;2.40;;
944;SDS011;459;48.676;9.034;2022-07-17T13:19:42;2.50;;;2.30;;
944;SDS011;459;48.676;9.034;2022-07-17T13:22:08;2.47;;;2.27;;
944;SDS011;459;48.676;9.034;2022-07-17T13:24:33;3.10;;;2.90;;
944;SDS011;459;48.676;9.034;2022-07-17T13:26:58;2.43;;;2.23;;
944;SDS011;459;48.676;9.034;2022-07-17T13:29:24;2.87;;;2.30;;
944;SDS011;459;48.676;9.034;2022-07-17T13:31:51;2.87;;;2.67;;
944;SDS011;459;48.676;9.034;2022-07-17T13:34:16;2.23;;;1.90;;
944;SDS011;459;48.676;9.034;2022-07-17T13:36:42;4.83;;;2.20;;
944;SDS011;459;48.676;9.034;2022-07-17T13:39:07;2.37;;;2.07;;
944;SDS011;459;48.676;9.034;2022-07-17T13:41:32;2.70;;;2.50;;
944;SDS011;459;48.676;9.034;2022-07-17T13:43:59;2.30;;;2.10;;
944;SDS011;459;48.676;9.034;2022-07-17T13:46:24;2.53;;;2.20;;
944;SDS011;459;48.676;9.034;2022-07-17T13:48:49;2.47;;;2.27;;
944;SDS011;459;48.676;9.034;2022-07-17T13:51:14;3.13;;;1.97;;
944;SDS011;459;48.676;9.034;2022-07-17T13:53:39;2.30;;;2.10;;
944;SDS011;459;48.676;9.034;2022-07-17T13:56:06;2.47;;;2.20;;
944;SDS011;459;48.676;9.034;2022-07-17T13:58:31;2.50;;;2.30;;
944;SDS011;459;48.676;9.034;2022-07-17T14:00:58;2.20;;;2.00;;
944;SDS011;459;48.676;9.034;2022-07-17T14:03:24;2.80;;;2.60;;
944;SDS011;459;48.676;9.034;2022-07-17T14:05:49;2.67;;;2.47;;
944;SDS011;459;48.676;9.034;2022-07-17T14:08:14;2.30;;;2.10;;
944;SDS011;459;48.676;9.034;2022-07-17T14:10:40;2.20;;;2.00;;
944;SDS011;459;48.676;9.034;2022-07-17T14:13:05;2.67;;;2.47;;
944;SDS011;459;48.676;9.034;2022-07-17T14:15:31;4.03;;;2.47;;
944;SDS011;459;48.676;9.034;2022-07-17T14:17:56;2.50;;;2.30;;
944;SDS011;459;48.676;9.034;2022-07-17T14:20:21;2.30;;;2.10;;
944;SDS011;459;48.676;9.034;2022-07-17T14:22:47;2.40;;;2.20;;
944;SDS011;459;48.676;9.034;2022-07-17T14:25:12;2.60;;;2.20;;
944;SDS011;459;48.676;9.034;2022-07-17T14:27:38;3.10;;;2.07;;
944;SDS011;459;48.676;9.034;2022-07-17T14:30:03;2.40;;;2.20;;
944;SDS011;459;48.676;9.034;2022-07-17T14:32:28;2.03;;;1.93;;
944;SDS011;459;48.676;9.034;2022-07-17T14:34:54;2.20;;;2.00;;
944;SDS011;459;48.676;9.034;2022-07-17T14:37:19;2.50;;;2.30;;
944;SDS011;459;48.676;9.034;2022-07-17T14:39:44;2.17;;;2.00;;
944;SDS011;459;48.676;9.034;2022-07-17T14:42:10;2.13;;;1.83;;
944;SDS011;459;48.676;9.034;2022-07-17T14:44:35;3.00;;;2.60;;
944;SDS011;459;48.676;9.034;2022-07-17T14:47:00;2.30;;;2.10;;
944;SDS011;459;48.676;9.034;2022-07-17T14:49:26;2.37;;;2.17;;
944;SDS011;459;48.676;9.034;2022-07-17T14:51:51;2.73;;;2.37;;
944;SDS011;459;48.676;9.034;2022-07-17T14:54:16;2.70;;;2.50;;
944;SDS011;459;48.676;9.034;2022-07-17T14:56:42;2.30;;;2.10;;
944;SDS011;459;48.676;9.034;2022-07-17T14:59:07;2.63;;;2.43;;
944;SDS011;459;48.676;9.034;2022-07-17T15:01:32;1.50;;;1.40;;
944;SDS011;459;48.676;9.034;2022-07-17T15:03:58;4.07;;;2.23;;
944;SDS011;459;48.676;9.034;2022-07-17T15:06:23;2.10;;;1.93;;
944;SDS011;459;48.676;9.034;2022-07-17T15:08:48;2.30;;;2.10;;
944;SDS011;459;48.676;9.034;2022-07-17T15:11:14;2.13;;;2.03;;
944;SDS011;459;48.676;9.034;2022-07-17T15:13:39;2.37;;;2.17;;
944;SDS011;459;48.676;9.034;2022-07-17T15:16:04;2.07;;;1.97;;
944;SDS011;459;48.676;9.034;2022-07-17T15:18:29;2.60;;;2.40;;
944;SDS011;459;48.676;9.034;2022-07-17T15:20:55;2.40;;;2.20;;
944;SDS011;459;48.676;9.034;2022-07-17T15:23:20;2.63;;;2.20;;
944;SDS011;459;48.676;9.034;2022-07-17T15:25:45;2.23;;;2.07;;
944;SDS011;459;48.676;9.034;2022-07-17T15:28:10;3.00;;;2.27;;
944;SDS011;459;48.676;9.034;2022-07-17T15:30:35;2.20;;;2.00;;
944;SDS011;459;48.676;9.034;2022-07-17T15:33:01;2.17;;;2.00;;
944;SDS011;459;48.676;9.034;2022-07-17T15:35:26;2.40;;;2.20;;
944;SDS011;459;48.676;9.034;2022-07-17T15:37:52;2.70;;;2.50;;
944;SDS011;459;48.676;9.034;2022-07-17T15:40:19;2.83;;;2.00;;
944;SDS011;459;48.676;9.034;2022-07-17T15:42:44;2.87;;;2.00;;
944;SDS011;459;48.676;9.034;2022-07-17T15:45:10;2.13;;;1.90;;